Time;durP1;ratioP1;P1;durP2;ratioP2;P2;SDS_P1;SDS_P2;PMS_P1;PMS_P2;Temp;Humidity;BMP_temperature;BMP_pressure;BME280_temperature;BME280_humidity;BME280_pressure;Samples;Min_cycle;Max_cycle;Signal;HPM_P1;HPM_P2
2022/09/20 00:00:47;;;;;;;12.00;6.30;;;11.80;99.90;;;;;;5089547;28;20872;-69
2022/09/20 00:03:16;;;;;;;13.07;6.63;;;11.80;99.90;;;;;;5092151;28;20486;-71
2022/09/20 00:05:44;;;;;;;10.60;7.10;;;11.90;99.90;;;;;;5088947;28;20473;-68
2022/09/20 00:08:13;;;;;;;9.93;6.57;;;11.90;99.90;;;;;;5089733;28;20493;-68
2022/09/20 00:10:40;;;;;;;10.50;6.77;;;11.90;99.90;;;;;;5092904;28;20965;-68
2022/09/20 00:13:10;;;;;;;11.20;6.80;;;12.00;99.90;;;;;;5089747;28;20462;-69
2022/09/20 00:15:42;;;;;;;13.00;6.40;;;11.90;99.90;;;;;;5097255;28;20450;-71
2022/09/20 00:18:10;;;;;;;10.83;6.73;;;11.90;99.90;;;;;;5093094;28;20936;-69
2022/09/20 00:20:37;;;;;;;16.53;7.27;;;11.90;99.90;;;;;;5092295;28;20498;-67
2022/09/20 00:23:04;;;;;;;11.33;6.13;;;11.90;99.90;;;;;;5094039;28;21042;-71
2022/09/20 00:25:32;;;;;;;8.80;6.50;;;11.90;99.90;;;;;;5099555;28;20701;-68
2022/09/20 00:27:59;;;;;;;9.90;6.53;;;11.90;99.90;;;;;;5092381;28;21005;-68
2022/09/20 00:30:28;;;;;;;9.47;6.70;;;11.90;99.90;;;;;;5089134;28;21818;-68
2022/09/20 00:32:56;;;;;;;10.23;6.67;;;11.90;99.90;;;;;;5092471;28;20453;-68
2022/09/20 00:35:21;;;;;;;13.93;6.70;;;11.90;99.90;;;;;;5098202;28;20453;-71
2022/09/20 00:37:48;;;;;;;9.20;5.80;;;11.80;99.90;;;;;;5093451;28;20889;-69
2022/09/20 00:40:19;;;;;;;10.33;6.37;;;11.90;99.90;;;;;;5093309;28;20570;-71
2022/09/20 00:42:46;;;;;;;13.20;6.70;;;11.90;99.90;;;;;;5093892;28;20468;-69
2022/09/20 00:45:21;;;;;;;14.60;6.63;;;11.90;99.90;;;;;;5097547;28;20818;-68
2022/09/20 00:47:53;;;;;;;8.57;6.50;;;11.90;99.90;;;;;;5089536;28;21005;-69
2022/09/20 00:50:32;;;;;;;10.27;6.93;;;11.90;99.90;;;;;;5086023;28;20465;-68
2022/09/20 00:53:04;;;;;;;25.57;8.43;;;11.90;99.90;;;;;;5092604;28;20604;-68
2022/09/20 00:55:32;;;;;;;14.00;7.70;;;11.90;99.90;;;;;;5099457;28;21024;-69
2022/09/20 00:57:59;;;;;;;11.33;7.90;;;11.80;99.90;;;;;;5093044;28;20508;-68
2022/09/20 01:00:26;;;;;;;7.53;6.30;;;11.80;99.90;;;;;;5089690;28;20469;-68
2022/09/20 01:02:58;;;;;;;11.97;7.13;;;11.80;99.90;;;;;;5093886;28;20588;-68
2022/09/20 01:05:26;;;;;;;7.13;6.40;;;11.80;99.90;;;;;;5092091;28;20495;-69
2022/09/20 01:07:54;;;;;;;8.23;7.40;;;11.80;99.90;;;;;;5088777;28;20485;-68
2022/09/20 01:10:21;;;;;;;12.80;6.90;;;11.80;99.90;;;;;;5097998;28;20840;-69
2022/09/20 01:12:50;;;;;;;10.90;6.33;;;11.80;99.90;;;;;;5093239;28;20465;-68
2022/09/20 01:15:17;;;;;;;18.20;6.80;;;11.90;99.90;;;;;;5090086;28;20805;-69
2022/09/20 01:17:47;;;;;;;8.93;6.37;;;11.90;99.90;;;;;;5095679;28;21108;-68
2022/09/20 01:20:25;;;;;;;7.37;5.43;;;11.90;99.90;;;;;;5088657;28;20514;-68
2022/09/20 01:23:27;;;;;;;11.20;5.80;;;11.90;99.90;;;;;;5088475;28;20651;-68
2022/09/20 01:26:11;;;;;;;10.50;7.10;;;11.80;99.90;;;;;;5095719;28;20469;-68
2022/09/20 01:28:42;;;;;;;19.57;6.70;;;11.90;99.90;;;;;;5093504;28;20489;-69
2022/09/20 01:31:15;;;;;;;13.13;5.50;;;11.80;99.90;;;;;;5089054;28;20477;-68
2022/09/20 01:33:47;;;;;;;10.73;6.40;;;11.80;99.90;;;;;;5095597;28;20975;-69
2022/09/20 01:36:18;;;;;;;9.20;5.90;;;11.80;99.90;;;;;;5090633;28;20940;-68
2022/09/20 01:38:58;;;;;;;11.60;6.27;;;11.90;99.90;;;;;;5088061;28;20480;-71
2022/09/20 01:41:31;;;;;;;9.13;5.87;;;11.90;99.90;;;;;;5094804;28;20456;-69
2022/09/20 01:44:08;;;;;;;5.90;5.03;;;11.80;99.90;;;;;;5091147;28;20698;-68
2022/09/20 01:46:37;;;;;;;13.00;5.97;;;11.80;99.90;;;;;;5089345;28;21196;-68
2022/09/20 01:49:20;;;;;;;6.30;5.30;;;11.80;99.90;;;;;;5096234;28;20473;-68
2022/09/20 01:52:26;;;;;;;11.43;6.00;;;11.80;99.90;;;;;;5093924;28;20457;-68
2022/09/20 01:55:33;;;;;;;10.80;5.63;;;11.70;99.90;;;;;;5089178;28;20987;-68
2022/09/20 01:58:26;;;;;;;10.30;6.70;;;11.80;99.90;;;;;;5088458;28;20972;-67
2022/09/20 02:01:23;;;;;;;7.30;5.90;;;11.70;99.90;;;;;;5088886;28;20466;-67
2022/09/20 02:04:12;;;;;;;9.47;5.67;;;11.70;99.90;;;;;;5090846;28;20796;-69
2022/09/20 02:06:56;;;;;;;6.90;5.63;;;11.70;99.90;;;;;;5088561;28;20466;-70
2022/09/20 02:09:38;;;;;;;8.83;5.93;;;11.70;99.90;;;;;;5094408;28;20473;-68
2022/09/20 02:12:43;;;;;;;8.13;6.40;;;11.70;99.90;;;;;;5091105;28;20938;-70
2022/09/20 02:15:35;;;;;;;25.17;6.40;;;11.70;99.90;;;;;;5096633;28;20453;-68
2022/09/20 02:18:16;;;;;;;10.53;5.43;;;11.70;99.90;;;;;;5099567;28;20457;-69
2022/09/20 02:20:52;;;;;;;10.03;5.70;;;11.70;99.90;;;;;;5094354;28;20716;-68
2022/09/20 02:23:36;;;;;;;8.97;5.40;;;11.70;99.90;;;;;;5093113;28;20470;-69
2022/09/20 02:26:21;;;;;;;6.07;5.50;;;11.70;99.90;;;;;;5093437;28;20729;-68
2022/09/20 02:28:55;;;;;;;8.47;6.07;;;11.60;99.90;;;;;;5090092;28;21053;-70
2022/09/20 02:31:36;;;;;;;10.87;5.50;;;11.70;99.90;;;;;;5087720;28;20461;-68
2022/09/20 02:34:32;;;;;;;6.60;6.00;;;11.80;99.90;;;;;;5087627;28;21349;-70
2022/09/20 02:37:14;;;;;;;22.47;5.70;;;11.70;99.90;;;;;;5097771;28;20461;-68
2022/09/20 02:39:51;;;;;;;8.03;5.63;;;11.60;99.90;;;;;;5090825;28;20461;-69
2022/09/20 02:42:22;;;;;;;6.43;5.90;;;11.60;99.90;;;;;;5092439;28;20461;-68
2022/09/20 02:44:59;;;;;;;7.80;5.70;;;11.50;99.90;;;;;;5094764;28;20465;-70
2022/09/20 02:47:33;;;;;;;11.30;6.20;;;11.60;99.90;;;;;;5092563;28;20465;-69
2022/09/20 02:50:26;;;;;;;7.83;5.83;;;11.60;99.90;;;;;;5092275;28;20516;-70
2022/09/20 02:53:05;;;;;;;13.37;6.10;;;11.60;99.90;;;;;;5086078;28;20458;-67
2022/09/20 02:55:40;;;;;;;14.33;6.07;;;11.50;99.90;;;;;;5088602;28;20457;-68
2022/09/20 02:58:24;;;;;;;8.63;5.83;;;11.50;99.90;;;;;;5094984;28;20555;-69
2022/09/20 03:01:00;;;;;;;15.00;5.90;;;11.50;99.90;;;;;;5090146;28;20875;-68
2022/09/20 03:03:40;;;;;;;7.57;5.40;;;11.60;99.90;;;;;;5089173;28;20490;-68
2022/09/20 03:06:16;;;;;;;9.93;5.97;;;11.60;99.90;;;;;;5092464;28;20454;-68
2022/09/20 03:08:52;;;;;;;10.47;5.47;;;11.50;99.90;;;;;;5091305;28;20484;-68
2022/09/20 03:11:29;;;;;;;8.83;5.40;;;11.60;99.90;;;;;;5090993;28;20535;-70
2022/09/20 03:14:10;;;;;;;10.00;6.20;;;11.50;99.90;;;;;;5093789;28;20472;-68
2022/09/20 03:16:49;;;;;;;7.60;6.27;;;11.60;99.90;;;;;;5086238;28;20450;-68
2022/09/20 03:19:32;;;;;;;8.00;5.70;;;11.60;99.90;;;;;;5092384;28;20457;-68
2022/09/20 03:22:09;;;;;;;9.43;6.10;;;11.50;99.90;;;;;;5096340;28;20467;-68
2022/09/20 03:24:48;;;;;;;7.83;6.73;;;11.50;99.90;;;;;;5094812;28;20580;-68
2022/09/20 03:27:26;;;;;;;9.80;6.37;;;11.60;99.90;;;;;;5088425;28;20478;-69
2022/09/20 03:30:08;;;;;;;8.67;6.30;;;11.60;99.90;;;;;;5090858;28;20522;-67
2022/09/20 03:32:51;;;;;;;8.50;6.10;;;11.50;99.90;;;;;;5094088;28;20468;-68
2022/09/20 03:35:31;;;;;;;10.97;7.33;;;11.50;99.90;;;;;;5089507;28;20461;-69
2022/09/20 03:38:16;;;;;;;14.33;7.27;;;11.50;99.90;;;;;;5094069;28;21111;-70
2022/09/20 03:41:05;;;;;;;10.53;7.17;;;11.50;99.90;;;;;;5094889;28;20470;-70
2022/09/20 03:43:50;;;;;;;8.53;7.20;;;11.40;99.90;;;;;;5093616;28;20482;-67
2022/09/20 03:46:21;;;;;;;9.03;6.50;;;11.40;99.90;;;;;;5089857;28;20457;-68
2022/09/20 03:49:12;;;;;;;19.67;7.60;;;11.50;99.90;;;;;;5094693;28;20548;-71
2022/09/20 03:51:52;;;;;;;7.93;6.93;;;11.40;99.90;;;;;;5092380;28;20462;-70
2022/09/20 03:54:56;;;;;;;9.77;8.20;;;11.50;99.90;;;;;;5092077;28;20760;-68
2022/09/20 03:57:56;;;;;;;11.03;6.40;;;11.50;99.90;;;;;;5098706;28;20549;-68
2022/09/20 04:00:34;;;;;;;10.47;8.47;;;11.50;99.90;;;;;;5097359;28;20969;-70
2022/09/20 04:03:14;;;;;;;8.37;6.87;;;11.50;99.90;;;;;;5095711;28;20995;-68
2022/09/20 04:05:51;;;;;;;11.43;6.80;;;11.50;99.90;;;;;;5095709;28;20523;-71
2022/09/20 04:08:35;;;;;;;11.53;7.10;;;11.60;99.90;;;;;;5091024;28;20473;-71
2022/09/20 04:11:09;;;;;;;14.03;8.00;;;11.50;99.90;;;;;;5097790;28;20458;-69
2022/09/20 04:13:37;;;;;;;12.57;8.00;;;11.50;99.90;;;;;;5094446;28;20469;-68
2022/09/20 04:16:18;;;;;;;11.90;7.80;;;11.50;99.90;;;;;;5095974;28;20449;-70
2022/09/20 04:18:50;;;;;;;17.00;8.17;;;11.50;99.90;;;;;;5091606;28;20462;-68
2022/09/20 04:21:22;;;;;;;16.53;7.70;;;11.60;99.90;;;;;;5100996;28;20968;-70
2022/09/20 04:23:56;;;;;;;16.23;8.90;;;11.60;99.90;;;;;;5090112;28;20484;-68
2022/09/20 04:26:27;;;;;;;12.23;9.20;;;11.60;99.90;;;;;;5095938;28;20477;-69
2022/09/20 04:29:00;;;;;;;12.93;8.33;;;11.50;99.90;;;;;;5094138;28;20484;-70
2022/09/20 04:31:39;;;;;;;11.40;8.57;;;11.50;99.90;;;;;;5095077;28;20464;-69
2022/09/20 04:34:13;;;;;;;14.10;10.40;;;11.60;99.90;;;;;;5094093;28;20502;-68
2022/09/20 04:36:56;;;;;;;13.50;11.87;;;11.60;99.90;;;;;;5094007;28;20463;-70
2022/09/20 04:39:34;;;;;;;14.87;11.60;;;11.60;99.90;;;;;;5097659;28;20465;-69
2022/09/20 04:42:31;;;;;;;19.73;11.60;;;11.60;99.90;;;;;;5090771;28;20462;-69
2022/09/20 04:45:36;;;;;;;20.27;12.80;;;11.50;99.90;;;;;;5092008;28;20765;-68
2022/09/20 04:48:36;;;;;;;15.30;13.23;;;11.40;99.90;;;;;;5052437;28;20480;-68
2022/09/20 04:51:41;;;;;;;14.30;12.83;;;11.40;99.90;;;;;;5098226;28;20454;-68
2022/09/20 04:54:28;;;;;;;14.43;12.90;;;11.40;99.90;;;;;;5095058;28;20458;-68
2022/09/20 04:57:20;;;;;;;16.47;13.10;;;11.30;99.90;;;;;;5090352;28;20570;-68
2022/09/20 05:00:03;;;;;;;17.07;14.20;;;11.30;99.90;;;;;;5092098;28;20469;-68
2022/09/20 05:02:56;;;;;;;15.23;13.57;;;11.20;99.90;;;;;;5094826;28;20454;-68
2022/09/20 05:06:04;;;;;;;14.70;13.30;;;11.10;99.90;;;;;;5094085;28;20458;-69
2022/09/20 05:09:04;;;;;;;15.63;14.03;;;11.10;99.90;;;;;;5068628;28;20490;-68
2022/09/20 05:11:56;;;;;;;15.87;14.40;;;11.10;99.90;;;;;;5078324;28;20513;-68
2022/09/20 05:14:43;;;;;;;16.67;15.10;;;11.00;99.90;;;;;;5066372;28;20883;-68
2022/09/20 05:17:25;;;;;;;19.20;13.40;;;11.10;99.90;;;;;;5093496;28;20523;-67
2022/09/20 05:20:28;;;;;;;16.97;15.27;;;11.00;99.90;;;;;;5092052;28;20903;-67
2022/09/20 05:23:40;;;;;;;16.97;14.80;;;11.00;99.90;;;;;;5090392;28;20462;-68
2022/09/20 05:26:12;;;;;;;17.97;15.60;;;11.00;99.90;;;;;;5091736;28;20551;-69
2022/09/20 05:28:50;;;;;;;17.07;14.77;;;11.10;99.90;;;;;;5088023;28;20497;-67
2022/09/20 05:31:24;;;;;;;16.00;14.50;;;11.20;99.90;;;;;;5093254;28;20462;-70
2022/09/20 05:33:57;;;;;;;16.47;14.80;;;11.20;99.90;;;;;;5097666;28;20469;-67
2022/09/20 05:36:32;;;;;;;19.97;16.70;;;11.20;99.90;;;;;;5096277;28;20469;-67
2022/09/20 05:39:04;;;;;;;21.23;15.70;;;11.20;99.90;;;;;;5094470;28;20549;-68
2022/09/20 05:41:41;;;;;;;16.90;15.27;;;11.20;99.90;;;;;;5089615;28;20469;-68
2022/09/20 05:44:21;;;;;;;16.03;14.00;;;11.20;99.90;;;;;;5091623;28;20485;-68
2022/09/20 05:46:57;;;;;;;16.00;14.57;;;11.20;99.90;;;;;;5091954;28;20527;-69
2022/09/20 05:49:38;;;;;;;17.70;16.20;;;11.20;99.90;;;;;;5092968;28;20878;-68
2022/09/20 05:52:22;;;;;;;21.40;15.50;;;11.20;99.90;;;;;;5092341;28;20964;-68
2022/09/20 05:55:08;;;;;;;16.67;14.93;;;11.10;99.90;;;;;;5090203;28;20462;-69
2022/09/20 05:57:49;;;;;;;24.07;16.07;;;11.10;99.90;;;;;;5094255;28;20502;-67
2022/09/20 06:00:21;;;;;;;24.03;15.20;;;11.20;99.90;;;;;;5091035;28;20453;-68
2022/09/20 06:02:54;;;;;;;17.97;15.97;;;11.20;99.90;;;;;;5091603;28;20823;-68
2022/09/20 06:05:32;;;;;;;17.57;15.63;;;11.30;99.90;;;;;;5098863;28;20490;-69
2022/09/20 06:08:32;;;;;;;22.50;15.53;;;11.40;99.90;;;;;;5091015;28;20763;-68
2022/09/20 06:11:14;;;;;;;17.30;14.80;;;11.50;99.90;;;;;;5095742;28;20673;-68
2022/09/20 06:13:59;;;;;;;16.17;14.23;;;11.60;99.90;;;;;;5091999;28;20618;-68
2022/09/20 06:16:37;;;;;;;16.30;14.70;;;11.50;99.90;;;;;;5091279;28;20519;-68
2022/09/20 06:19:14;;;;;;;21.07;15.50;;;11.50;99.90;;;;;;5092743;28;20703;-68
2022/09/20 06:21:50;;;;;;;16.97;14.60;;;11.40;99.90;;;;;;5095396;28;20464;-68
2022/09/20 06:24:26;;;;;;;18.53;15.80;;;11.40;99.90;;;;;;5088828;28;20538;-68
2022/09/20 06:26:55;;;;;;;16.33;14.50;;;11.40;99.90;;;;;;5087665;28;20453;-69
2022/09/20 06:29:28;;;;;;;23.97;15.40;;;11.50;99.90;;;;;;5089138;28;20497;-68
2022/09/20 06:31:56;;;;;;;17.90;14.00;;;11.60;99.90;;;;;;5087487;28;20473;-68
2022/09/20 06:34:25;;;;;;;16.67;14.07;;;11.70;99.90;;;;;;5091388;28;20484;-68
2022/09/20 06:42:37;;;;;;;18.57;14.30;;;12.10;99.90;;;;;;5092029;28;20452;-67
2022/09/20 06:45:05;;;;;;;16.20;14.70;;;12.00;99.90;;;;;;5096010;28;20909;-67
2022/09/20 06:47:33;;;;;;;15.90;13.60;;;12.20;99.90;;;;;;5088441;28;21000;-67
2022/09/20 06:50:00;;;;;;;16.37;14.83;;;12.20;99.90;;;;;;5085365;28;20460;-68
2022/09/20 06:52:27;;;;;;;22.83;14.17;;;12.20;99.90;;;;;;5086772;28;20458;-68
2022/09/20 06:54:56;;;;;;;16.50;13.37;;;12.30;99.90;;;;;;5088018;28;20968;-67
2022/09/20 06:57:25;;;;;;;21.20;13.60;;;12.30;99.90;;;;;;5089241;28;20683;-67
2022/09/20 06:59:52;;;;;;;13.90;12.70;;;12.40;99.90;;;;;;5089806;28;20475;-67
2022/09/20 07:02:18;;;;;;;19.43;14.20;;;12.60;99.90;;;;;;5086807;28;20465;-68
2022/09/20 07:04:47;;;;;;;17.53;12.20;;;12.60;99.90;;;;;;5084831;28;20490;-69
2022/09/20 07:07:17;;;;;;;14.47;11.70;;;12.70;99.90;;;;;;5090012;28;20913;-69
2022/09/20 07:09:44;;;;;;;14.03;11.43;;;12.70;99.90;;;;;;5091151;28;20472;-68
2022/09/20 07:12:11;;;;;;;12.63;11.53;;;12.90;99.90;;;;;;5090536;28;20475;-69
2022/09/20 07:14:39;;;;;;;20.63;10.90;;;13.00;99.90;;;;;;5088088;28;20968;-68
2022/09/20 07:17:06;;;;;;;22.30;10.63;;;13.00;99.90;;;;;;5087719;28;20530;-69
2022/09/20 07:19:34;;;;;;;12.93;9.90;;;13.00;99.90;;;;;;5087798;28;20536;-68
2022/09/20 07:22:04;;;;;;;14.80;9.10;;;13.10;99.90;;;;;;5093029;28;20470;-68
2022/09/20 07:24:31;;;;;;;12.97;9.87;;;13.20;99.90;;;;;;5094779;28;20494;-68
2022/09/20 07:27:00;;;;;;;21.03;10.47;;;13.30;99.90;;;;;;5098744;28;20533;-68
2022/09/20 07:29:27;;;;;;;16.17;9.30;;;13.20;99.90;;;;;;5097265;28;20934;-68
2022/09/20 07:31:55;;;;;;;14.87;9.90;;;13.30;99.90;;;;;;5093223;28;20462;-68
2022/09/20 07:34:22;;;;;;;14.13;11.00;;;13.40;99.90;;;;;;5094573;28;20471;-68
2022/09/20 07:36:50;;;;;;;17.47;11.77;;;13.50;99.90;;;;;;5096755;28;20450;-68
2022/09/20 07:39:18;;;;;;;14.30;11.33;;;13.50;99.90;;;;;;5093605;28;21037;-68
2022/09/20 07:41:47;;;;;;;15.73;12.60;;;13.40;99.90;;;;;;5094049;28;20465;-69
2022/09/20 07:44:24;;;;;;;15.20;11.50;;;13.40;99.90;;;;;;5095094;28;20892;-70
2022/09/20 07:46:52;;;;;;;14.17;12.60;;;13.30;99.90;;;;;;5095685;28;20465;-69
2022/09/20 07:49:19;;;;;;;13.50;10.63;;;13.20;99.90;;;;;;5091043;28;20511;-69
2022/09/20 07:51:46;;;;;;;18.20;11.80;;;13.20;99.90;;;;;;5096004;28;20832;-70
2022/09/20 07:54:12;;;;;;;11.83;10.57;;;13.20;99.90;;;;;;5096817;28;20461;-69
2022/09/20 07:56:43;;;;;;;12.90;10.27;;;13.30;99.90;;;;;;5097512;28;20466;-69
2022/09/20 07:59:10;;;;;;;11.60;10.60;;;13.20;99.90;;;;;;5091508;28;20457;-68
2022/09/20 08:01:37;;;;;;;10.40;9.50;;;13.20;99.90;;;;;;5097053;28;20986;-68
2022/09/20 08:04:05;;;;;;;12.23;10.53;;;13.20;99.90;;;;;;5098671;28;20876;-69
2022/09/20 08:06:32;;;;;;;18.43;11.27;;;13.20;99.90;;;;;;5100391;28;20457;-68
2022/09/20 08:08:59;;;;;;;12.50;11.20;;;13.20;99.90;;;;;;5098228;28;20492;-68
2022/09/20 08:11:28;;;;;;;13.37;11.47;;;13.20;99.90;;;;;;5093059;28;20575;-70
2022/09/20 08:13:58;;;;;;;11.27;10.47;;;13.30;99.90;;;;;;5093059;28;20978;-70
2022/09/20 08:16:26;;;;;;;12.57;11.27;;;13.30;99.90;;;;;;5091620;28;20457;-68
2022/09/20 08:18:56;;;;;;;22.17;12.17;;;13.40;99.90;;;;;;5095724;28;20458;-68
2022/09/20 08:21:24;;;;;;;14.80;12.63;;;13.50;99.90;;;;;;5083777;28;20456;-68
2022/09/20 08:23:51;;;;;;;14.47;12.10;;;13.50;99.90;;;;;;5095365;28;20458;-68
2022/09/20 08:26:19;;;;;;;15.13;11.70;;;13.60;99.90;;;;;;5090748;28;21365;-69
2022/09/20 08:28:48;;;;;;;14.37;12.70;;;13.70;99.90;;;;;;5096312;28;20495;-68
2022/09/20 08:31:19;;;;;;;13.20;12.07;;;13.80;99.90;;;;;;5093718;28;21088;-68
2022/09/20 08:33:47;;;;;;;13.27;12.20;;;13.90;99.90;;;;;;5090109;28;20851;-70
2022/09/20 08:36:16;;;;;;;13.20;11.90;;;13.80;99.90;;;;;;5089631;28;20465;-69
2022/09/20 08:38:43;;;;;;;12.60;11.90;;;13.80;99.90;;;;;;5093677;28;20466;-69
2022/09/20 08:41:12;;;;;;;13.67;12.53;;;14.10;99.90;;;;;;5089337;28;20461;-70
2022/09/20 08:43:44;;;;;;;13.33;12.23;;;14.20;99.90;;;;;;5099563;28;20457;-68
2022/09/20 08:46:15;;;;;;;14.80;11.87;;;14.30;99.90;;;;;;5095223;28;20511;-68
2022/09/20 08:48:45;;;;;;;13.43;12.30;;;14.50;99.90;;;;;;5092878;28;20789;-68
2022/09/20 08:51:14;;;;;;;14.70;13.50;;;14.60;99.90;;;;;;5098903;28;20453;-68
2022/09/20 08:53:46;;;;;;;14.33;13.07;;;14.80;99.90;;;;;;5092621;28;20458;-69
2022/09/20 08:56:13;;;;;;;17.77;13.10;;;15.00;99.90;;;;;;5092781;28;20457;-68
2022/09/20 08:58:40;;;;;;;14.70;13.10;;;15.30;99.90;;;;;;5093201;28;20506;-70
2022/09/20 09:01:11;;;;;;;14.67;13.77;;;15.40;99.90;;;;;;5090251;28;20797;-70
2022/09/20 09:03:38;;;;;;;14.90;13.87;;;15.50;99.90;;;;;;5090364;28;20488;-67
2022/09/20 09:06:19;;;;;;;14.53;13.73;;;15.70;99.90;;;;;;5096093;28;20473;-68
2022/09/20 09:08:50;;;;;;;16.07;14.53;;;16.00;99.90;;;;;;5095473;28;20878;-70
2022/09/20 09:11:20;;;;;;;16.60;15.07;;;16.20;99.90;;;;;;5091147;28;20551;-69
2022/09/20 09:13:52;;;;;;;15.67;14.47;;;16.30;99.90;;;;;;5090451;28;20527;-71
2022/09/20 09:16:22;;;;;;;15.50;14.50;;;16.30;99.90;;;;;;5090585;28;20454;-68
2022/09/20 09:18:54;;;;;;;15.70;14.50;;;16.10;99.90;;;;;;5094234;28;21003;-70
2022/09/20 09:21:24;;;;;;;14.97;14.07;;;16.10;99.90;;;;;;5089091;28;20458;-71
2022/09/20 09:23:59;;;;;;;15.10;14.10;;;16.00;99.90;;;;;;5090175;28;20481;-69
2022/09/20 09:26:35;;;;;;;15.20;14.30;;;15.70;99.90;;;;;;5090572;28;20504;-69
2022/09/20 09:29:13;;;;;;;15.87;14.87;;;15.90;99.90;;;;;;5091943;28;20510;-72
2022/09/20 09:31:40;;;;;;;16.40;14.63;;;16.50;99.90;;;;;;5090909;28;20979;-72
2022/09/20 09:34:23;;;;;;;15.73;14.37;;;17.40;99.90;;;;;;5094724;28;20458;-69
2022/09/20 09:36:53;;;;;;;15.30;14.20;;;18.00;99.90;;;;;;5091475;28;20500;-69
2022/09/20 09:39:25;;;;;;;20.40;14.70;;;18.20;99.90;;;;;;5092898;28;20861;-71
2022/09/20 09:41:53;;;;;;;17.07;15.27;;;18.00;99.90;;;;;;5091906;28;21323;-71
2022/09/20 09:44:23;;;;;;;16.13;14.90;;;17.80;99.90;;;;;;5092682;28;20822;-70
2022/09/20 09:46:50;;;;;;;15.73;14.73;;;17.30;99.90;;;;;;5092375;28;20980;-69
2022/09/20 09:49:20;;;;;;;16.53;15.13;;;17.20;99.90;;;;;;5091107;28;20481;-69
2022/09/20 09:52:11;;;;;;;16.90;15.70;;;17.10;99.90;;;;;;5090222;28;20469;-71
2022/09/20 09:54:43;;;;;;;15.80;15.00;;;17.10;99.90;;;;;;5094303;28;20458;-71
2022/09/20 09:57:39;;;;;;;16.30;15.30;;;17.40;99.90;;;;;;5089369;28;20454;-70
2022/09/20 10:00:11;;;;;;;16.63;15.03;;;17.70;99.90;;;;;;5091222;28;20450;-71
2022/09/20 10:03:06;;;;;;;16.33;15.23;;;17.70;99.90;;;;;;5089000;28;20469;-69
2022/09/20 10:05:41;;;;;;;17.03;15.40;;;17.60;99.90;;;;;;5094220;28;20481;-71
2022/09/20 10:08:23;;;;;;;18.20;15.80;;;17.80;99.90;;;;;;5095113;28;21024;-68
2022/09/20 10:11:02;;;;;;;16.63;15.53;;;17.50;99.90;;;;;;5093185;28;20469;-71
2022/09/20 10:13:36;;;;;;;16.40;14.97;;;17.90;99.90;;;;;;5090122;28;20539;-68
2022/09/20 10:16:16;;;;;;;15.50;14.70;;;17.90;99.90;;;;;;5096334;28;20463;-70
2022/09/20 10:18:50;;;;;;;15.37;14.50;;;17.90;99.90;;;;;;5092292;28;20873;-69
2022/09/20 10:21:35;;;;;;;15.83;15.03;;;18.00;99.90;;;;;;5096786;28;20967;-68
2022/09/20 10:24:29;;;;;;;16.73;15.40;;;17.80;99.90;;;;;;5091881;28;20613;-68
2022/09/20 10:27:27;;;;;;;16.80;15.57;;;17.50;99.90;;;;;;5090739;28;21634;-68
2022/09/20 10:30:04;;;;;;;16.00;14.80;;;17.50;99.90;;;;;;5081957;28;21099;-68
2022/09/20 10:32:59;;;;;;;16.40;15.37;;;17.70;99.90;;;;;;5094028;28;20845;-68
2022/09/20 10:35:35;;;;;;;15.83;14.60;;;17.60;99.90;;;;;;5095311;28;20463;-68
2022/09/20 10:38:20;;;;;;;16.77;15.40;;;17.10;99.90;;;;;;5090443;28;20464;-71
2022/09/20 10:44:09;;;;;;;16.00;15.00;;;16.50;99.90;;;;;;5090980;28;20527;-68
2022/09/20 10:46:47;;;;;;;17.40;16.10;;;16.20;99.90;;;;;;5092688;28;20492;-68
2022/09/20 10:49:23;;;;;;;15.97;14.80;;;16.00;99.90;;;;;;5087719;28;20464;-70
2022/09/20 10:52:03;;;;;;;15.70;14.80;;;15.80;99.90;;;;;;5091590;28;20462;-68
2022/09/20 10:54:40;;;;;;;15.77;14.90;;;15.70;99.90;;;;;;5093539;28;20457;-69
2022/09/20 10:57:26;;;;;;;15.40;14.40;;;15.40;99.90;;;;;;5089979;28;20884;-70
2022/09/20 11:00:03;;;;;;;15.83;14.83;;;15.20;99.90;;;;;;5090025;28;20944;-68
2022/09/20 11:02:53;;;;;;;18.53;17.13;;;15.10;99.90;;;;;;5089695;28;20516;-68
2022/09/20 11:05:30;;;;;;;15.70;14.60;;;14.90;99.90;;;;;;5090635;28;20478;-68
2022/09/20 11:08:06;;;;;;;15.60;14.60;;;14.60;99.90;;;;;;5091537;28;20956;-71
2022/09/20 11:10:38;;;;;;;17.57;15.83;;;14.30;99.90;;;;;;5086896;28;20458;-68
2022/09/20 11:13:15;;;;;;;16.77;15.37;;;14.20;99.90;;;;;;5090695;28;20449;-66
2022/09/20 11:15:46;;;;;;;16.30;15.20;;;14.10;99.90;;;;;;5094089;28;20970;-70
2022/09/20 11:18:22;;;;;;;16.13;15.07;;;13.90;99.90;;;;;;5088771;28;20522;-69
2022/09/20 11:20:56;;;;;;;15.70;14.30;;;13.90;99.90;;;;;;5090963;28;20461;-68
2022/09/20 11:23:28;;;;;;;16.60;15.10;;;13.80;99.90;;;;;;5093927;28;20511;-68
2022/09/20 11:26:00;;;;;;;15.60;14.73;;;13.70;99.90;;;;;;5090486;28;20984;-68
2022/09/20 11:28:35;;;;;;;17.10;15.47;;;13.70;99.90;;;;;;5094231;28;20597;-68
2022/09/20 11:31:07;;;;;;;14.93;13.93;;;13.70;99.90;;;;;;5096635;28;20453;-70
2022/09/20 11:33:40;;;;;;;16.80;13.80;;;13.80;99.90;;;;;;5098482;28;20597;-69
2022/09/20 11:36:14;;;;;;;14.50;13.47;;;13.90;99.90;;;;;;5092604;28;20464;-70
2022/09/20 11:38:49;;;;;;;13.47;12.40;;;13.90;99.90;;;;;;5090519;28;20453;-68
2022/09/20 11:41:19;;;;;;;12.93;12.33;;;14.00;99.90;;;;;;5090937;28;20960;-68
2022/09/20 11:43:48;;;;;;;13.37;12.67;;;14.10;99.90;;;;;;5091115;28;20646;-68
2022/09/20 11:46:21;;;;;;;13.93;12.80;;;14.20;99.90;;;;;;5093077;28;20493;-68
2022/09/20 11:48:52;;;;;;;15.13;14.23;;;14.30;99.90;;;;;;5087126;28;20489;-69
2022/09/20 11:51:38;;;;;;;13.43;12.83;;;14.50;99.90;;;;;;5092568;28;20474;-70
2022/09/20 11:54:35;;;;;;;13.83;13.00;;;14.80;99.90;;;;;;5092016;28;20466;-69
2022/09/20 11:57:02;;;;;;;14.13;13.13;;;15.20;99.90;;;;;;5079566;28;20779;-69
2022/09/20 11:59:35;;;;;;;15.20;14.30;;;15.60;99.90;;;;;;5095812;28;20549;-70
2022/09/20 12:02:05;;;;;;;14.77;13.87;;;15.60;99.90;;;;;;5089732;28;20594;-69
2022/09/20 12:04:35;;;;;;;15.50;14.50;;;15.90;99.90;;;;;;5089664;28;20468;-69
2022/09/20 12:07:05;;;;;;;16.40;15.10;;;16.00;99.90;;;;;;5088148;28;20546;-69
2022/09/20 12:09:36;;;;;;;16.30;14.80;;;15.70;99.90;;;;;;5093858;28;21012;-69
2022/09/20 12:12:19;;;;;;;16.20;15.00;;;15.20;99.90;;;;;;5098852;28;20449;-69
2022/09/20 12:14:54;;;;;;;15.50;14.60;;;14.80;99.90;;;;;;5094988;28;20746;-70
2022/09/20 12:17:59;;;;;;;15.63;14.27;;;14.10;99.90;;;;;;5096290;28;20464;-69
2022/09/20 12:21:01;;;;;;;15.13;14.03;;;14.00;99.90;;;;;;5095422;28;20465;-69
2022/09/20 12:24:15;;;;;;;15.67;14.37;;;13.80;99.90;;;;;;5096073;28;20862;-67
2022/09/20 12:26:45;;;;;;;15.47;14.37;;;13.60;99.90;;;;;;5009246;28;20500;-69
2022/09/20 12:29:54;;;;;;;16.00;14.50;;;13.70;99.90;;;;;;5012569;28;20500;-68
2022/09/20 12:32:47;;;;;;;16.70;15.00;;;13.90;99.90;;;;;;5081934;28;20450;-70
2022/09/20 12:35:58;;;;;;;16.43;15.20;;;14.00;99.90;;;;;;5096938;28;20454;-71
2022/09/20 12:38:37;;;;;;;17.43;15.77;;;14.00;99.90;;;;;;5089674;28;20964;-68
2022/09/20 12:41:08;;;;;;;16.83;15.40;;;14.30;99.90;;;;;;5092028;28;20468;-69
2022/09/20 12:43:46;;;;;;;16.90;15.50;;;14.40;99.90;;;;;;5096443;28;20476;-68
2022/09/20 12:46:21;;;;;;;17.40;16.10;;;14.40;99.90;;;;;;5090735;28;20781;-68
2022/09/20 12:48:49;;;;;;;16.80;15.60;;;14.60;99.90;;;;;;5091139;28;20652;-68
2022/09/20 12:54:12;;;;;;;12.70;11.63;;;14.90;99.90;;;;;;5095204;28;20461;-70
2022/09/20 12:56:43;;;;;;;14.63;12.53;;;15.00;99.90;;;;;;5093456;28;20487;-69
2022/09/20 12:59:23;;;;;;;13.50;12.40;;;15.30;99.90;;;;;;5090740;28;20964;-68
2022/09/20 13:01:51;;;;;;;13.50;12.60;;;15.60;99.90;;;;;;5096734;28;20837;-68
2022/09/20 13:04:55;;;;;;;14.63;13.57;;;15.70;99.90;;;;;;5090933;28;20864;-68
2022/09/20 13:07:46;;;;;;;14.60;13.60;;;16.00;99.90;;;;;;5090536;28;20991;-69
2022/09/20 13:10:36;;;;;;;15.53;14.67;;;16.40;99.90;;;;;;5095915;28;20507;-71
2022/09/20 13:13:14;;;;;;;15.80;14.70;;;17.20;99.90;;;;;;5090521;28;20929;-71
2022/09/20 13:15:47;;;;;;;15.97;14.80;;;17.90;99.90;;;;;;5093180;28;20456;-69
2022/09/20 13:18:15;;;;;;;16.30;15.30;;;18.40;99.90;;;;;;5094319;28;20466;-69
2022/09/20 13:20:43;;;;;;;15.70;14.70;;;18.80;99.90;;;;;;5093948;28;20465;-68
2022/09/20 13:23:20;;;;;;;15.33;14.43;;;18.80;99.90;;;;;;5095893;28;20457;-68
2022/09/20 13:25:48;;;;;;;17.17;15.53;;;18.80;99.90;;;;;;5091910;28;20569;-68
2022/09/20 13:28:26;;;;;;;16.43;15.13;;;18.70;99.90;;;;;;5093923;28;21024;-68
2022/09/20 13:31:23;;;;;;;15.73;14.80;;;18.80;99.90;;;;;;5089451;28;20970;-70